createdAt,value
2019-04-04T00:00:07.145Z,6.9
2019-04-04T00:01:07.239Z,6.9
2019-04-04T00:02:06.927Z,6.91
2019-04-04T00:03:06.910Z,6.9
2019-04-04T00:04:06.950Z,6.87
2019-04-04T00:05:06.905Z,6.91
2019-04-04T00:06:06.910Z,6.87
2019-04-04T00:07:06.895Z,6.87
2019-04-04T00:08:06.912Z,6.84
2019-04-04T00:09:06.908Z,6.84
2019-04-04T00:10:06.912Z,6.87
2019-04-04T00:11:06.925Z,6.88
2019-04-04T00:12:08.768Z,6.9
2019-04-04T00:13:06.914Z,6.88
2019-04-04T00:14:06.895Z,6.9
2019-04-04T00:15:06.871Z,6.91
2019-04-04T00:16:06.903Z,6.9
2019-04-04T00:17:06.903Z,6.91
2019-04-04T00:18:06.891Z,6.92
2019-04-04T00:19:06.871Z,6.92
2019-04-04T00:20:06.958Z,6.92
2019-04-04T00:21:06.910Z,6.92
2019-04-04T00:22:07.144Z,6.94
2019-04-04T00:23:07.783Z,6.92
2019-04-04T00:24:09.775Z,6.92
2019-04-04T00:25:10.781Z,6.9
2019-04-04T00:26:06.891Z,6.91
2019-04-04T00:27:06.909Z,6.91
2019-04-04T00:28:06.879Z,6.91
2019-04-04T00:29:06.909Z,6.88
2019-04-04T00:30:06.897Z,6.84
2019-04-04T00:31:06.887Z,6.84
2019-04-04T00:32:06.863Z,6.83
2019-04-04T00:33:06.903Z,6.85
2019-04-04T00:34:06.870Z,6.81
2019-04-04T00:35:06.936Z,6.78
2019-04-04T00:36:06.850Z,6.81
2019-04-04T00:37:06.869Z,6.83
2019-04-04T00:38:07.728Z,6.83
2019-04-04T00:39:10.148Z,6.88
2019-04-04T00:40:06.852Z,6.83
2019-04-04T00:41:06.841Z,6.85
2019-04-04T00:42:06.855Z,6.88
2019-04-04T00:43:06.863Z,6.87
2019-04-04T00:44:06.959Z,6.85
2019-04-04T00:45:06.880Z,6.85
2019-04-04T00:46:06.835Z,6.9
2019-04-04T00:47:06.840Z,6.91
2019-04-04T00:48:06.824Z,6.91
2019-04-04T00:49:06.869Z,6.91
2019-04-04T00:50:06.948Z,6.92
2019-04-04T00:51:08.701Z,6.91
2019-04-04T00:52:11.053Z,6.83
2019-04-04T00:53:06.845Z,6.85
2019-04-04T00:54:06.848Z,6.87
2019-04-04T00:55:06.885Z,6.84
2019-04-04T00:56:06.851Z,6.88
2019-04-04T00:57:06.813Z,6.87
2019-04-04T00:58:06.832Z,6.91
2019-04-04T00:59:06.874Z,6.9
2019-04-04T01:00:06.879Z,6.91
2019-04-04T01:01:06.836Z,6.94
2019-04-04T01:02:06.817Z,6.92
2019-04-04T01:03:06.871Z,6.95
2019-04-04T01:04:06.844Z,6.94
2019-04-04T01:05:06.803Z,6.95
2019-04-04T01:06:06.907Z,6.95
2019-04-04T01:07:06.826Z,6.96
2019-04-04T01:08:07.729Z,6.95
2019-04-04T01:09:13.820Z,6.94
2019-04-04T01:10:06.829Z,6.96
2019-04-04T01:11:06.829Z,6.92
2019-04-04T01:12:06.800Z,6.92
2019-04-04T01:13:06.805Z,6.94
2019-04-04T01:14:06.797Z,6.95
2019-04-04T01:15:06.829Z,6.95
2019-04-04T01:16:06.791Z,6.95
2019-04-04T01:17:06.812Z,6.94
2019-04-04T01:18:07.779Z,6.95
2019-04-04T01:19:10.519Z,6.95
2019-04-04T01:20:06.815Z,6.95
2019-04-04T01:21:06.774Z,6.96
2019-04-04T01:22:06.802Z,6.96
2019-04-04T01:23:06.810Z,6.99
2019-04-04T01:24:06.839Z,6.96
2019-04-04T01:25:06.882Z,6.98
2019-04-04T01:26:06.822Z,6.96
2019-04-04T01:27:07.097Z,6.98
2019-04-04T01:28:08.822Z,6.99
2019-04-04T01:29:11.315Z,6.96
2019-04-04T01:30:06.916Z,6.99
2019-04-04T01:31:06.807Z,7.02
2019-04-04T01:32:06.800Z,7.03
2019-04-04T01:33:06.780Z,7.08
2019-04-04T01:34:06.775Z,7.06
2019-04-04T01:35:06.777Z,7.06
2019-04-04T01:36:06.835Z,7.08
2019-04-04T01:37:06.779Z,7.11
2019-04-04T01:38:06.755Z,7.09
2019-04-04T01:39:06.780Z,7.11
2019-04-04T01:40:06.756Z,7.12
2019-04-04T01:41:06.783Z,7.09
2019-04-04T01:42:08.047Z,7.08
2019-04-04T01:43:10.062Z,7.08
2019-04-04T01:44:06.769Z,7.05
2019-04-04T01:45:06.789Z,7.03
2019-04-04T01:46:06.761Z,7.01
2019-04-04T01:47:08.175Z,7.01
2019-04-04T01:48:06.878Z,7.01
2019-04-04T01:49:06.851Z,6.98
2019-04-04T01:50:06.766Z,7.01
2019-04-04T01:51:08.181Z,6.96
2019-04-04T01:52:06.746Z,6.96
2019-04-04T01:53:06.795Z,6.95
2019-04-04T01:54:06.772Z,6.96
2019-04-04T01:55:06.741Z,6.95
2019-04-04T01:56:07.238Z,6.95
2019-04-04T01:57:08.872Z,6.92
2019-04-04T01:58:10.823Z,6.91
2019-04-04T01:59:06.816Z,6.92
2019-04-04T02:00:06.772Z,6.91
2019-04-04T02:01:06.732Z,6.91
2019-04-04T02:02:06.749Z,6.9
2019-04-04T02:03:06.762Z,6.88
2019-04-04T02:04:06.746Z,6.91
2019-04-04T02:05:06.729Z,6.91
2019-04-04T02:06:06.764Z,6.9
2019-04-04T02:07:06.741Z,6.91
2019-04-04T02:08:06.750Z,6.85
2019-04-04T02:09:06.740Z,6.88
2019-04-04T02:10:06.730Z,6.91
2019-04-04T02:11:07.253Z,6.9
2019-04-04T02:12:08.678Z,6.94
2019-04-04T02:13:10.605Z,6.94
2019-04-04T02:14:06.706Z,6.94
2019-04-04T02:15:06.756Z,6.94
2019-04-04T02:16:06.769Z,6.94
2019-04-04T02:17:06.717Z,6.92
2019-04-04T02:18:06.712Z,6.94
2019-04-04T02:19:06.695Z,6.94
2019-04-04T02:20:06.747Z,6.92
2019-04-04T02:21:06.774Z,6.94
2019-04-04T02:22:06.802Z,6.94
2019-04-04T02:23:06.703Z,6.95
2019-04-04T02:24:06.736Z,6.95
2019-04-04T02:25:06.806Z,6.98
2019-04-04T02:26:06.800Z,6.96
2019-04-04T02:27:07.759Z,7.01
2019-04-04T02:28:09.653Z,6.99
2019-04-04T02:29:06.741Z,7.01
2019-04-04T02:30:06.715Z,6.99
2019-04-04T02:31:06.757Z,7.01
2019-04-04T02:32:06.759Z,7.01
2019-04-04T02:33:06.737Z,6.98
2019-04-04T02:34:07.947Z,7.01
2019-04-04T02:35:11.894Z,6.98
2019-04-04T02:36:06.702Z,6.96
2019-04-04T02:37:06.735Z,6.98
2019-04-04T02:38:06.694Z,6.99
2019-04-04T02:39:06.751Z,6.98
2019-04-04T02:40:10.358Z,6.98
2019-04-04T02:41:06.704Z,6.98
2019-04-04T02:42:06.696Z,6.98
2019-04-04T02:43:06.722Z,6.94
2019-04-04T02:44:06.693Z,6.94
2019-04-04T02:45:06.835Z,6.91
2019-04-04T02:46:12.451Z,6.9
2019-04-04T02:47:06.692Z,6.9
2019-04-04T02:48:06.733Z,6.91
2019-04-04T02:49:06.718Z,6.91
2019-04-04T02:50:06.686Z,6.94
2019-04-04T02:51:08.576Z,6.96
2019-04-04T02:52:06.741Z,6.96
2019-04-04T02:53:06.706Z,6.96
2019-04-04T02:54:06.828Z,7.01
2019-04-04T02:55:06.673Z,6.94
2019-04-04T02:56:06.796Z,6.91
2019-04-04T02:57:09.838Z,6.92
2019-04-04T02:58:06.699Z,6.91
2019-04-04T02:59:06.653Z,6.91
2019-04-04T03:00:06.670Z,6.91
2019-04-04T03:01:06.650Z,6.87
2019-04-04T03:02:06.675Z,6.88
2019-04-04T03:03:09.674Z,6.9
2019-04-04T03:04:06.659Z,6.9
2019-04-04T03:05:06.713Z,6.9
2019-04-04T03:06:06.656Z,6.92
2019-04-04T03:07:06.715Z,6.9
2019-04-04T03:08:06.669Z,6.88
2019-04-04T03:09:10.770Z,6.87
2019-04-04T03:10:06.659Z,6.77
2019-04-04T03:11:06.627Z,6.68
2019-04-04T03:12:06.642Z,6.68
2019-04-04T03:13:06.636Z,6.73
2019-04-04T03:14:06.692Z,6.71
2019-04-04T03:15:10.472Z,6.77
2019-04-04T03:16:06.917Z,6.78
2019-04-04T03:17:06.720Z,6.78
2019-04-04T03:18:06.671Z,6.78
2019-04-04T03:19:11.526Z,6.78
2019-04-04T03:20:06.657Z,6.81
2019-04-04T03:21:06.655Z,6.83
2019-04-04T03:22:06.672Z,6.83
2019-04-04T03:23:06.663Z,6.84
2019-04-04T03:24:07.506Z,6.87
2019-04-04T03:25:06.650Z,6.85
2019-04-04T03:26:06.635Z,6.87
2019-04-04T03:27:06.650Z,6.87
2019-04-04T03:28:06.656Z,6.88
2019-04-04T03:29:11.106Z,6.88
2019-04-04T03:30:17.470Z,6.9
2019-04-04T03:31:06.629Z,6.9
2019-04-04T03:32:17.319Z,6.91
2019-04-04T03:33:06.686Z,6.91
2019-04-04T03:34:13.290Z,6.9
2019-04-04T03:35:06.662Z,6.91
2019-04-04T03:36:06.593Z,6.9
2019-04-04T03:37:14.164Z,6.88
2019-04-04T03:38:06.630Z,6.91
2019-04-04T03:39:06.685Z,6.9
2019-04-04T03:40:06.697Z,6.9
2019-04-04T03:41:06.686Z,6.87
2019-04-04T03:42:08.463Z,6.9
2019-04-04T03:43:06.699Z,6.88
2019-04-04T03:44:06.629Z,6.87
2019-04-04T03:45:09.708Z,6.9
2019-04-04T03:46:06.589Z,6.88
2019-04-04T03:47:11.512Z,6.92
2019-04-04T03:48:06.579Z,6.92
2019-04-04T03:49:06.620Z,6.91
2019-04-04T03:50:06.589Z,6.9
2019-04-04T03:51:06.633Z,6.9
2019-04-04T03:52:11.711Z,6.9
2019-04-04T03:53:06.607Z,6.92
2019-04-04T03:54:06.640Z,6.92
2019-04-04T03:55:06.589Z,6.92
2019-04-04T03:56:06.612Z,6.94
2019-04-04T03:57:12.599Z,6.91
2019-04-04T03:58:07.383Z,6.9
2019-04-04T03:59:06.878Z,6.88
2019-04-04T04:00:07.816Z,6.87
2019-04-04T04:01:06.603Z,6.85
2019-04-04T04:02:06.589Z,6.83
2019-04-04T04:03:06.644Z,6.84
2019-04-04T04:04:06.569Z,6.85
2019-04-04T04:05:06.569Z,6.83
2019-04-04T04:06:10.215Z,6.81
2019-04-04T04:07:06.604Z,6.84
2019-04-04T04:08:06.607Z,6.84
2019-04-04T04:09:06.559Z,6.84
2019-04-04T04:10:06.567Z,6.84
2019-04-04T04:11:06.616Z,6.81
2019-04-04T04:12:11.517Z,6.78
2019-04-04T04:13:06.534Z,6.78
2019-04-04T04:14:06.569Z,6.75
2019-04-04T04:15:06.584Z,6.78
2019-04-04T04:16:06.583Z,6.77
2019-04-04T04:17:12.752Z,6.8
2019-04-04T04:18:06.562Z,6.8
2019-04-04T04:19:06.553Z,6.78
2019-04-04T04:20:06.602Z,6.8
2019-04-04T04:21:11.391Z,6.78
2019-04-04T04:22:06.562Z,6.78
2019-04-04T04:23:06.614Z,6.78
2019-04-04T04:24:06.533Z,6.81
2019-04-04T04:25:06.554Z,6.8
2019-04-04T04:26:10.238Z,6.81
2019-04-04T04:27:06.568Z,6.81
2019-04-04T04:28:06.595Z,6.78
2019-04-04T04:29:06.530Z,6.8
2019-04-04T04:30:07.893Z,6.8
2019-04-04T04:31:06.521Z,6.78
2019-04-04T04:32:06.526Z,6.78
2019-04-04T04:33:06.562Z,6.81
2019-04-04T04:34:07.661Z,6.81
2019-04-04T04:35:09.363Z,6.8
2019-04-04T04:36:15.498Z,6.8
2019-04-04T04:37:06.516Z,6.8
2019-04-04T04:38:06.552Z,6.81
2019-04-04T04:39:06.955Z,6.78
2019-04-04T04:40:06.532Z,6.8
2019-04-04T04:41:06.620Z,6.78
2019-04-04T04:42:07.516Z,6.8
2019-04-04T04:43:06.574Z,6.78
2019-04-04T04:44:06.936Z,6.75
2019-04-04T04:45:12.694Z,6.77
2019-04-04T04:46:06.630Z,6.77
2019-04-04T04:47:06.509Z,6.78
2019-04-04T04:48:06.522Z,6.77
2019-04-04T04:49:06.523Z,6.78
2019-04-04T04:50:10.202Z,6.78
2019-04-04T04:51:06.496Z,6.81
2019-04-04T04:52:06.516Z,6.81
2019-04-04T04:53:06.569Z,6.83
2019-04-04T04:54:06.500Z,6.8
2019-04-04T04:55:06.508Z,6.8
2019-04-04T04:56:06.548Z,6.83
2019-04-04T04:57:06.514Z,6.83
2019-04-04T04:58:11.325Z,6.83
2019-04-04T04:59:06.509Z,6.84
2019-04-04T05:00:06.497Z,6.85
2019-04-04T05:01:06.474Z,6.84
2019-04-04T05:02:06.499Z,6.83
2019-04-04T05:03:06.488Z,6.84
2019-04-04T05:04:06.534Z,6.81
2019-04-04T05:05:06.511Z,6.75
2019-04-04T05:06:06.588Z,6.75
2019-04-04T05:07:08.243Z,6.63
2019-04-04T05:08:10.812Z,6.61
2019-04-04T05:09:06.487Z,6.57
2019-04-04T05:10:06.493Z,6.61
2019-04-04T05:11:06.494Z,6.63
2019-04-04T05:12:06.484Z,6.6
2019-04-04T05:13:06.491Z,6.44
2019-04-04T05:14:06.470Z,6.26
2019-04-04T05:15:06.631Z,6.22
2019-04-04T05:16:09.109Z,6.19
2019-04-04T05:17:10.769Z,6.26
2019-04-04T05:18:06.619Z,6.26
2019-04-04T05:19:06.485Z,6.3
2019-04-04T05:20:06.487Z,6.28
2019-04-04T05:21:06.566Z,6.29
2019-04-04T05:22:09.882Z,6.35
2019-04-04T05:23:06.495Z,6.26
2019-04-04T05:24:06.488Z,6.23
2019-04-04T05:25:09.303Z,6.19
2019-04-04T05:26:10.014Z,6.16
2019-04-04T05:27:06.872Z,6.15
2019-04-04T05:28:06.552Z,6.13
2019-04-04T05:29:06.520Z,6.12
2019-04-04T05:30:08.913Z,6.15
2019-04-04T05:31:06.471Z,6.16
2019-04-04T05:32:06.482Z,6.12
2019-04-04T05:33:06.471Z,6.12
2019-04-04T05:34:06.546Z,6.16
2019-04-04T05:35:06.540Z,6.18
2019-04-04T05:36:06.476Z,6.2
2019-04-04T05:37:08.346Z,6.2
2019-04-04T05:38:08.151Z,6.22
2019-04-04T05:39:06.514Z,6.13
2019-04-04T05:40:06.487Z,6.02
2019-04-04T05:41:06.486Z,6.02
2019-04-04T05:42:06.443Z,6.02
2019-04-04T05:43:06.472Z,6.02
2019-04-04T05:44:10.425Z,6.11
2019-04-04T05:45:06.441Z,6.13
2019-04-04T05:46:06.467Z,6.11
2019-04-04T05:47:06.522Z,6.11
2019-04-04T05:48:06.479Z,6.11
2019-04-04T05:49:08.723Z,6.13
2019-04-04T05:50:06.466Z,6.2
2019-04-04T05:51:06.486Z,6.19
2019-04-04T05:52:09.369Z,6.25
2019-04-04T05:53:06.426Z,6.26
2019-04-04T05:54:08.560Z,6.3
2019-04-04T05:55:11.125Z,6.29
2019-04-04T05:56:06.787Z,6.25
2019-04-04T05:57:06.454Z,6.26
2019-04-04T05:58:06.466Z,6.28
2019-04-04T05:59:06.437Z,6.26
2019-04-04T06:00:06.475Z,6.25
2019-04-04T06:01:06.420Z,6.29
2019-04-04T06:02:06.472Z,6.19
2019-04-04T06:03:06.442Z,6.19
2019-04-04T06:04:06.513Z,6.18
2019-04-04T06:05:06.470Z,6.05
2019-04-04T06:06:06.540Z,6.05
2019-04-04T06:07:06.427Z,6.08
2019-04-04T06:08:08.962Z,6.09
2019-04-04T06:09:06.458Z,6.15
2019-04-04T06:10:06.385Z,6.16
2019-04-04T06:11:08.505Z,6.18
2019-04-04T06:12:06.412Z,6.2
2019-04-04T06:13:06.412Z,6.22
2019-04-04T06:14:06.427Z,6.22
2019-04-04T06:15:06.401Z,6.22
2019-04-04T06:16:06.407Z,6.18
2019-04-04T06:17:08.014Z,6.19
2019-04-04T06:18:06.486Z,6.2
2019-04-04T06:19:06.444Z,6.15
2019-04-04T06:20:06.404Z,6.09
2019-04-04T06:21:06.398Z,6.08
2019-04-04T06:22:06.487Z,6.08
2019-04-04T06:23:06.481Z,6.15
2019-04-04T06:24:06.397Z,6.13
2019-04-04T06:25:06.428Z,6.18
2019-04-04T06:26:07.917Z,6.2
2019-04-04T06:27:09.807Z,6.13
2019-04-04T06:28:06.462Z,6.09
2019-04-04T06:29:06.439Z,6.08
2019-04-04T06:30:06.423Z,6.05
2019-04-04T06:31:07.480Z,5.97
2019-04-04T06:32:06.382Z,6
2019-04-04T06:33:06.392Z,5.95
2019-04-04T06:34:10.993Z,5.95
2019-04-04T06:35:08.246Z,6.01
2019-04-04T06:36:06.464Z,6.05
2019-04-04T06:37:06.385Z,6.09
2019-04-04T06:38:06.425Z,6.11
2019-04-04T06:39:06.446Z,6.09
2019-04-04T06:40:06.409Z,6.01
2019-04-04T06:41:06.415Z,6.08
2019-04-04T06:42:06.377Z,6.08
2019-04-04T06:43:12.119Z,6.09
2019-04-04T06:44:06.389Z,6.16
2019-04-04T06:45:06.321Z,6.18
2019-04-04T06:46:06.423Z,6.09
2019-04-04T06:47:06.361Z,6.11
2019-04-04T06:48:06.339Z,6.12
2019-04-04T06:49:06.350Z,6.15
2019-04-04T06:50:08.734Z,6.18
2019-04-04T06:51:06.367Z,6.22
2019-04-04T06:52:09.663Z,6.23
2019-04-04T06:53:06.340Z,6.23
2019-04-04T06:54:06.351Z,6.22
2019-04-04T06:55:06.360Z,6.16
2019-04-04T06:56:06.427Z,6.13
2019-04-04T06:57:06.375Z,6.16
2019-04-04T06:58:09.908Z,6.2
2019-04-04T06:59:06.389Z,6.09
2019-04-04T07:00:06.380Z,6.02
2019-04-04T07:01:06.327Z,6.09
2019-04-04T07:02:06.443Z,6.09
2019-04-04T07:03:06.315Z,6.11
2019-04-04T07:04:06.385Z,6.18
2019-04-04T07:05:07.147Z,6.19
2019-04-04T07:06:11.000Z,6.22
2019-04-04T07:07:06.438Z,6.22
2019-04-04T07:08:06.363Z,6.2
2019-04-04T07:09:06.308Z,6.22
2019-04-04T07:10:07.615Z,6.22
2019-04-04T07:11:21.887Z,6.2
2019-04-04T07:12:07.390Z,6.23
2019-04-04T07:13:27.806Z,6.22
2019-04-04T07:14:06.491Z,6.23
2019-04-04T07:15:06.412Z,6.18
2019-04-04T07:16:08.419Z,6.19
2019-04-04T07:17:09.724Z,6.16
2019-04-04T07:18:06.328Z,6.19
2019-04-04T07:19:08.447Z,6.22
2019-04-04T07:20:06.298Z,6.2
2019-04-04T07:21:06.403Z,6.22
2019-04-04T07:22:06.331Z,6.22
2019-04-04T07:23:06.300Z,6.25
2019-04-04T07:24:06.364Z,6.28
2019-04-04T07:25:07.052Z,6.29
2019-04-04T07:26:06.365Z,6.26
2019-04-04T07:27:06.325Z,6.22
2019-04-04T07:28:06.324Z,6.25
2019-04-04T07:29:06.355Z,6.28
2019-04-04T07:30:06.290Z,6.3
2019-04-04T07:31:06.311Z,6.32
2019-04-04T07:32:10.229Z,6.29
2019-04-04T07:33:06.279Z,6.29
2019-04-04T07:34:06.299Z,6.26
2019-04-04T07:35:06.315Z,6.28
2019-04-04T07:36:06.323Z,6.25
2019-04-04T07:37:06.292Z,6.11
2019-04-04T07:38:06.336Z,6.05
2019-04-04T07:39:06.372Z,5.97
2019-04-04T07:40:06.280Z,5.92
2019-04-04T07:41:09.280Z,5.92
2019-04-04T07:42:06.341Z,5.94
2019-04-04T07:43:09.081Z,6.02
2019-04-04T07:44:06.247Z,5.95
2019-04-04T07:45:07.216Z,5.98
2019-04-04T07:46:17.303Z,5.97
2019-04-04T07:47:06.336Z,5.95
2019-04-04T07:48:06.272Z,5.84
2019-04-04T07:49:06.256Z,5.84
2019-04-04T07:50:06.244Z,5.84
2019-04-04T07:51:06.260Z,5.84
2019-04-04T07:52:06.273Z,5.78
2019-04-04T07:53:06.274Z,5.75
2019-04-04T07:54:08.239Z,5.7
2019-04-04T07:55:11.109Z,5.73
2019-04-04T07:56:06.292Z,5.75
2019-04-04T07:57:07.222Z,5.74
2019-04-04T07:58:06.238Z,5.69
2019-04-04T07:59:06.243Z,5.73
2019-04-04T08:00:06.225Z,5.71
2019-04-04T08:01:06.228Z,5.67
2019-04-04T08:02:06.264Z,5.7
2019-04-04T08:03:07.592Z,5.75
2019-04-04T08:04:06.997Z,5.69
2019-04-04T08:05:06.286Z,5.64
2019-04-04T08:06:06.312Z,5.62
2019-04-04T08:07:06.230Z,5.59
2019-04-04T08:08:06.234Z,5.6
2019-04-04T08:09:06.269Z,5.53
2019-04-04T08:10:06.302Z,5.54
2019-04-04T08:11:06.295Z,5.53
2019-04-04T08:12:06.209Z,5.6
2019-04-04T08:13:06.206Z,5.62
2019-04-04T08:14:06.237Z,5.54
2019-04-04T08:15:06.222Z,5.51
2019-04-04T08:16:06.224Z,5.49
2019-04-04T08:17:06.218Z,5.4
2019-04-04T08:18:06.464Z,5.43
2019-04-04T08:19:06.558Z,5.4
2019-04-04T08:20:06.217Z,5.39
2019-04-04T08:21:06.242Z,5.38
2019-04-04T08:22:06.320Z,5.33
2019-04-04T08:23:06.260Z,5.32
2019-04-04T08:24:06.251Z,5.38
2019-04-04T08:25:06.186Z,5.26
2019-04-04T08:26:06.254Z,5.22
2019-04-04T08:27:06.271Z,5.15
2019-04-04T08:28:06.204Z,5.15
2019-04-04T08:29:06.216Z,5.25
2019-04-04T08:30:06.219Z,5.25
2019-04-04T08:31:06.229Z,5.22
2019-04-04T08:32:06.246Z,5.14
2019-04-04T08:33:06.208Z,5.22
2019-04-04T08:34:06.215Z,5.12
2019-04-04T08:35:06.201Z,5.11
2019-04-04T08:36:07.042Z,5.07
2019-04-04T08:37:06.189Z,5.15
2019-04-04T08:38:06.252Z,5.19
2019-04-04T08:39:06.200Z,5.15
2019-04-04T08:40:06.235Z,5.15
2019-04-04T08:41:06.243Z,5.12
2019-04-04T08:42:06.214Z,5.16
2019-04-04T08:43:06.234Z,5.1
2019-04-04T08:44:06.170Z,5.11
2019-04-04T08:45:07.110Z,5.23
2019-04-04T08:46:06.193Z,5.18
2019-04-04T08:47:06.162Z,5.21
2019-04-04T08:48:06.208Z,5.22
2019-04-04T08:49:06.165Z,5.15
2019-04-04T08:50:06.188Z,5.18
2019-04-04T08:51:06.157Z,5.11
2019-04-04T08:52:20.736Z,5.14
2019-04-04T08:53:06.167Z,5.16
2019-04-04T08:54:06.182Z,5.14
2019-04-04T08:55:06.177Z,5.16
2019-04-04T08:56:06.213Z,5.22
2019-04-04T08:57:06.162Z,5.16
2019-04-04T08:58:06.192Z,5.12
2019-04-04T08:59:06.151Z,5.08
2019-04-04T09:00:06.155Z,5.07
2019-04-04T09:01:06.196Z,5.02
2019-04-04T09:02:06.161Z,5.08
2019-04-04T09:03:06.137Z,5.08
2019-04-04T09:04:06.119Z,5.07
2019-04-04T09:05:12.894Z,5.11
2019-04-04T09:06:06.182Z,5.04
2019-04-04T09:07:07.335Z,5
2019-04-04T09:08:06.144Z,5.05
2019-04-04T09:09:06.173Z,5.08
2019-04-04T09:10:06.193Z,5.02
2019-04-04T09:11:06.205Z,4.97
2019-04-04T09:12:06.155Z,4.91
2019-04-04T09:13:06.201Z,4.95
2019-04-04T09:14:06.172Z,5.01
2019-04-04T09:15:06.136Z,4.98
2019-04-04T09:16:06.156Z,5
2019-04-04T09:17:06.115Z,4.98
2019-04-04T09:18:06.135Z,4.98
2019-04-04T09:19:06.118Z,5.04
2019-04-04T09:20:10.033Z,5
2019-04-04T09:21:06.167Z,5.01
2019-04-04T09:22:06.172Z,5.07
2019-04-04T09:23:06.198Z,5.07
2019-04-04T09:24:06.161Z,5.11
2019-04-04T09:25:06.168Z,5.05
2019-04-04T09:26:06.617Z,5.08
2019-04-04T09:27:06.092Z,5.11
2019-04-04T09:28:06.164Z,5.08
2019-04-04T09:29:06.135Z,5.05
2019-04-04T09:30:06.171Z,5.02
2019-04-04T09:31:06.148Z,5.01
2019-04-04T09:32:06.115Z,5.01
2019-04-04T09:33:06.125Z,4.98
2019-04-04T09:34:06.131Z,5.08
2019-04-04T09:35:06.154Z,5.07
2019-04-04T09:36:06.160Z,5.12
2019-04-04T09:37:09.073Z,5.11
2019-04-04T09:38:06.098Z,5.05
2019-04-04T09:39:06.106Z,5.04
2019-04-04T09:40:06.117Z,5.08
2019-04-04T09:41:06.113Z,5.12
2019-04-04T09:42:06.095Z,5.15
2019-04-04T09:43:06.088Z,5.23
2019-04-04T09:44:06.555Z,5.26
2019-04-04T09:45:06.165Z,5.29
2019-04-04T09:46:06.157Z,5.23
2019-04-04T09:47:06.196Z,5.28
2019-04-04T09:48:06.084Z,5.28
2019-04-04T09:49:06.079Z,5.32
2019-04-04T09:50:07.473Z,5.3
2019-04-04T09:51:07.190Z,5.39
2019-04-04T09:52:06.128Z,5.38
2019-04-04T09:53:06.095Z,5.42
2019-04-04T09:54:06.079Z,5.4
2019-04-04T09:55:06.065Z,5.33
2019-04-04T09:56:06.097Z,5.29
2019-04-04T09:57:06.089Z,5.36
2019-04-04T09:58:06.068Z,5.38
2019-04-04T09:59:06.079Z,5.35
2019-04-04T10:00:06.061Z,5.33
2019-04-04T10:01:07.000Z,5.38
2019-04-04T10:02:06.082Z,5.42
2019-04-04T10:03:06.121Z,5.38
2019-04-04T10:04:06.045Z,5.39
2019-04-04T10:05:06.954Z,5.36
2019-04-04T10:06:06.038Z,5.45
2019-04-04T10:07:06.324Z,5.49
2019-04-04T10:08:06.357Z,5.57
2019-04-04T10:09:17.061Z,5.63
2019-04-04T10:10:06.139Z,5.62
2019-04-04T10:11:06.017Z,5.6
2019-04-04T10:12:06.035Z,5.67
2019-04-04T10:13:06.031Z,5.59
2019-04-04T10:14:06.036Z,5.51
2019-04-04T10:15:06.076Z,5.39
2019-04-04T10:16:06.070Z,5.45
2019-04-04T10:17:06.054Z,5.49
2019-04-04T10:18:06.038Z,5.51
2019-04-04T10:19:06.055Z,5.57
2019-04-04T10:20:06.004Z,5.62
2019-04-04T10:21:12.778Z,5.69
2019-04-04T10:22:06.006Z,5.69
2019-04-04T10:23:06.099Z,5.67
2019-04-04T10:24:06.038Z,5.74
2019-04-04T10:25:06.044Z,5.73
2019-04-04T10:26:06.013Z,5.73
2019-04-04T10:27:06.045Z,5.71
2019-04-04T10:28:06.011Z,5.74
2019-04-04T10:29:06.210Z,5.74
2019-04-04T10:30:06.387Z,5.74
2019-04-04T10:31:06.058Z,5.73
2019-04-04T10:32:06.030Z,5.71
2019-04-04T10:33:05.985Z,5.67
2019-04-04T10:34:06.031Z,5.66
2019-04-04T10:35:05.998Z,5.62
2019-04-04T10:36:06.010Z,5.67
2019-04-04T10:37:06.007Z,5.59
2019-04-04T10:38:06.012Z,5.51
2019-04-04T10:39:06.022Z,5.46
2019-04-04T10:40:06.050Z,5.36
2019-04-04T10:41:06.032Z,5.36
2019-04-04T10:42:06.112Z,5.4
2019-04-04T10:43:05.975Z,5.46
2019-04-04T10:44:06.000Z,5.46
2019-04-04T10:45:06.062Z,5.43
2019-04-04T10:46:06.031Z,5.45
2019-04-04T10:47:05.979Z,5.43
2019-04-04T10:48:05.975Z,5.45
2019-04-04T10:49:08.539Z,5.45
2019-04-04T10:50:06.036Z,5.35
2019-04-04T10:51:06.006Z,5.46
2019-04-04T10:52:05.995Z,5.5
2019-04-04T10:53:06.116Z,5.45
2019-04-04T10:54:05.978Z,5.49
2019-04-04T10:55:05.987Z,5.45
2019-04-04T10:56:06.001Z,5.46
2019-04-04T10:57:06.035Z,5.51
2019-04-04T10:58:06.067Z,5.53
2019-04-04T10:59:06.161Z,5.53
2019-04-04T11:00:05.989Z,5.53
2019-04-04T11:01:05.997Z,5.43
2019-04-04T11:02:05.971Z,5.46
2019-04-04T11:03:06.005Z,5.35
2019-04-04T11:04:06.012Z,5.49
2019-04-04T11:05:06.039Z,5.56
2019-04-04T11:06:06.024Z,5.45
2019-04-04T11:07:05.992Z,5.53
2019-04-04T11:08:07.349Z,5.39
2019-04-04T11:09:05.960Z,5.36
2019-04-04T11:10:05.979Z,5.43
2019-04-04T11:11:05.956Z,5.5
2019-04-04T11:12:05.968Z,5.5
2019-04-04T11:13:06.472Z,5.49
2019-04-04T11:14:06.054Z,5.5
2019-04-04T11:15:05.938Z,5.53
2019-04-04T11:16:05.978Z,5.53
2019-04-04T11:17:05.947Z,5.47
2019-04-04T11:18:05.959Z,5.43
2019-04-04T11:19:05.966Z,5.35
2019-04-04T11:20:05.949Z,5.35
2019-04-04T11:21:05.929Z,5.38
2019-04-04T11:22:05.928Z,5.42
2019-04-04T11:23:05.956Z,5.49
2019-04-04T11:24:05.963Z,5.56
2019-04-04T11:25:05.983Z,5.63
2019-04-04T11:26:05.955Z,5.66
2019-04-04T11:27:06.395Z,5.66
2019-04-04T11:28:05.927Z,5.63
2019-04-04T11:29:05.934Z,5.71
2019-04-04T11:30:05.945Z,5.56
2019-04-04T11:31:05.939Z,5.54
2019-04-04T11:32:05.969Z,5.63
2019-04-04T11:33:05.964Z,5.67
2019-04-04T11:34:05.947Z,5.74
2019-04-04T11:35:06.319Z,5.74
2019-04-04T11:36:05.902Z,5.81
2019-04-04T11:37:05.918Z,5.73
2019-04-04T11:38:05.923Z,5.71
2019-04-04T11:39:05.959Z,5.75
2019-04-04T11:40:05.911Z,5.73
2019-04-04T11:41:05.912Z,5.7
2019-04-04T11:42:05.923Z,5.75
2019-04-04T11:43:05.901Z,5.78
2019-04-04T11:44:05.892Z,5.74
2019-04-04T11:45:05.927Z,5.77
2019-04-04T11:46:05.928Z,5.77
2019-04-04T11:47:05.935Z,5.75
2019-04-04T11:48:05.913Z,5.71
2019-04-04T11:49:05.894Z,5.74
2019-04-04T11:50:05.948Z,5.84
2019-04-04T11:51:05.987Z,5.78
2019-04-04T11:52:05.895Z,5.77
2019-04-04T11:53:05.900Z,5.67
2019-04-04T11:54:05.891Z,5.7
2019-04-04T11:55:06.048Z,5.64
2019-04-04T11:56:06.071Z,5.6
2019-04-04T11:57:06.135Z,5.62
2019-04-04T11:58:05.904Z,5.66
2019-04-04T11:59:08.431Z,5.63
2019-04-04T12:00:05.900Z,5.62
2019-04-04T12:01:05.918Z,5.59
2019-04-04T12:02:06.006Z,5.59
2019-04-04T12:03:05.876Z,5.57
2019-04-04T12:04:05.946Z,5.53
2019-04-04T12:05:05.889Z,5.57
2019-04-04T12:06:05.932Z,5.67
2019-04-04T12:07:05.915Z,5.7
2019-04-04T12:08:05.887Z,5.66
2019-04-04T12:09:05.893Z,5.69
2019-04-04T12:10:08.572Z,5.7
2019-04-04T12:11:05.869Z,5.74
2019-04-04T12:12:05.881Z,5.74
2019-04-04T12:13:05.908Z,5.8
2019-04-04T12:14:05.904Z,5.84
2019-04-04T12:15:05.893Z,5.73
2019-04-04T12:16:05.887Z,5.66
2019-04-04T12:17:05.897Z,5.71
2019-04-04T12:18:06.783Z,5.73
2019-04-04T12:19:06.008Z,5.71
2019-04-04T12:20:05.918Z,5.78
2019-04-04T12:21:05.886Z,5.75
2019-04-04T12:22:05.867Z,5.8
2019-04-04T12:23:05.859Z,5.8
2019-04-04T12:24:05.862Z,5.77
2019-04-04T12:25:05.854Z,5.74
2019-04-04T12:26:06.730Z,5.73
2019-04-04T12:27:05.829Z,5.75
2019-04-04T12:28:05.884Z,5.81
2019-04-04T12:29:05.836Z,5.78
2019-04-04T12:30:05.891Z,5.8
2019-04-04T12:31:05.833Z,5.77
2019-04-04T12:32:05.832Z,5.81
2019-04-04T12:33:05.805Z,5.81
2019-04-04T12:34:05.815Z,5.87
2019-04-04T12:35:06.721Z,5.87
2019-04-04T12:36:05.825Z,5.88
2019-04-04T12:37:05.834Z,5.84
2019-04-04T12:38:05.824Z,5.84
2019-04-04T12:39:05.867Z,5.85
2019-04-04T12:40:21.512Z,5.85
2019-04-04T12:41:05.811Z,5.88
2019-04-04T12:42:05.788Z,5.85
2019-04-04T12:43:05.877Z,5.77
2019-04-04T12:44:05.802Z,5.8
2019-04-04T12:45:06.169Z,5.88
2019-04-04T12:46:05.817Z,5.83
2019-04-04T12:47:05.809Z,5.81
2019-04-04T12:48:05.821Z,5.8
2019-04-04T12:49:05.841Z,5.87
2019-04-04T12:50:05.928Z,5.85
2019-04-04T12:51:05.906Z,5.85
2019-04-04T12:52:07.032Z,5.78
2019-04-04T12:53:05.806Z,5.8
2019-04-04T12:54:05.851Z,5.81
2019-04-04T12:55:06.719Z,5.9
2019-04-04T12:56:05.787Z,5.92
2019-04-04T12:57:05.798Z,5.94
2019-04-04T12:58:05.821Z,5.98
2019-04-04T12:59:05.790Z,6.01
2019-04-04T13:00:05.794Z,6
2019-04-04T13:01:05.800Z,5.9
2019-04-04T13:02:05.806Z,5.87
2019-04-04T13:03:05.778Z,5.85
2019-04-04T13:04:05.769Z,5.91
2019-04-04T13:05:05.810Z,5.9
2019-04-04T13:06:05.780Z,5.95
2019-04-04T13:07:05.822Z,5.97
2019-04-04T13:08:05.794Z,5.94
2019-04-04T13:09:06.322Z,5.97
2019-04-04T13:10:12.423Z,5.98
2019-04-04T13:11:07.002Z,6.04
2019-04-04T13:12:05.767Z,6.01
2019-04-04T13:13:05.791Z,6.05
2019-04-04T13:14:05.788Z,6.06
2019-04-04T13:15:05.789Z,6.06
2019-04-04T13:16:05.814Z,6.02
2019-04-04T13:17:05.798Z,6
2019-04-04T13:18:05.800Z,6
2019-04-04T13:19:05.771Z,5.95
2019-04-04T13:20:05.782Z,5.91
2019-04-04T13:21:05.829Z,6
2019-04-04T13:22:05.773Z,6.02